sensor_id;sensor_type;location;lat;lon;timestamp;P1;durP1;ratioP1;P2;durP2;ratioP2
7835;SDS011;3963;42.658;23.298;2022-08-11T00:00:07;6.23;;;4.93;;
7835;SDS011;3963;42.658;23.298;2022-08-11T00:02:39;5.37;;;4.87;;
7835;SDS011;3963;42.658;23.298;2022-08-11T00:05:09;5.83;;;5.13;;
7835;SDS011;3963;42.658;23.298;2022-08-11T00:07:43;6.77;;;5.53;;
7835;SDS011;3963;42.658;23.298;2022-08-11T00:10:14;6.80;;;6.10;;
7835;SDS011;3963;42.658;23.298;2022-08-11T00:12:42;6.13;;;5.43;;
7835;SDS011;3963;42.658;23.298;2022-08-11T00:15:15;6.90;;;6.20;;
7835;SDS011;3963;42.658;23.298;2022-08-11T00:17:45;7.17;;;5.20;;
7835;SDS011;3963;42.658;23.298;2022-08-11T00:20:13;7.23;;;5.77;;
7835;SDS011;3963;42.658;23.298;2022-08-11T00:22:42;6.90;;;5.50;;
7835;SDS011;3963;42.658;23.298;2022-08-11T00:25:12;6.30;;;5.47;;
7835;SDS011;3963;42.658;23.298;2022-08-11T00:27:40;6.67;;;5.90;;
7835;SDS011;3963;42.658;23.298;2022-08-11T00:30:10;6.20;;;5.43;;
7835;SDS011;3963;42.658;23.298;2022-08-11T00:32:38;7.23;;;5.73;;
7835;SDS011;3963;42.658;23.298;2022-08-11T00:35:10;6.67;;;5.43;;
7835;SDS011;3963;42.658;23.298;2022-08-11T00:37:39;8.27;;;5.83;;
7835;SDS011;3963;42.658;23.298;2022-08-11T00:40:15;7.60;;;6.00;;
7835;SDS011;3963;42.658;23.298;2022-08-11T00:42:57;6.30;;;5.60;;
7835;SDS011;3963;42.658;23.298;2022-08-11T00:45:34;8.00;;;6.03;;
7835;SDS011;3963;42.658;23.298;2022-08-11T00:48:10;8.10;;;5.53;;
7835;SDS011;3963;42.658;23.298;2022-08-11T00:50:50;6.13;;;5.53;;
7835;SDS011;3963;42.658;23.298;2022-08-11T00:53:32;6.23;;;5.63;;
7835;SDS011;3963;42.658;23.298;2022-08-11T00:56:22;7.93;;;5.83;;
7835;SDS011;3963;42.658;23.298;2022-08-11T01:02:15;7.17;;;5.53;;
7835;SDS011;3963;42.658;23.298;2022-08-11T01:04:55;6.30;;;5.33;;
7835;SDS011;3963;42.658;23.298;2022-08-11T01:07:43;5.93;;;5.20;;
7835;SDS011;3963;42.658;23.298;2022-08-11T01:23:05;6.20;;;5.40;;
7835;SDS011;3963;42.658;23.298;2022-08-11T01:26:19;8.50;;;5.53;;
7835;SDS011;3963;42.658;23.298;2022-08-11T01:35:58;18.80;;;16.23;;
7835;SDS011;3963;42.658;23.298;2022-08-11T01:39:13;14.33;;;12.43;;
7835;SDS011;3963;42.658;23.298;2022-08-11T01:45:44;9.73;;;8.73;;
7835;SDS011;3963;42.658;23.298;2022-08-11T01:48:18;9.47;;;7.77;;
7835;SDS011;3963;42.658;23.298;2022-08-11T01:51:02;8.17;;;6.87;;
7835;SDS011;3963;42.658;23.298;2022-08-11T01:53:38;9.13;;;7.07;;
7835;SDS011;3963;42.658;23.298;2022-08-11T01:59:09;7.40;;;6.70;;
7835;SDS011;3963;42.658;23.298;2022-08-11T02:01:44;7.00;;;6.27;;
7835;SDS011;3963;42.658;23.298;2022-08-11T02:04:24;8.07;;;6.53;;
7835;SDS011;3963;42.658;23.298;2022-08-11T02:07:00;8.03;;;6.60;;
7835;SDS011;3963;42.658;23.298;2022-08-11T02:12:23;8.10;;;6.70;;
7835;SDS011;3963;42.658;23.298;2022-08-11T02:15:13;8.67;;;6.27;;
7835;SDS011;3963;42.658;23.298;2022-08-11T02:17:47;7.50;;;6.57;;
7835;SDS011;3963;42.658;23.298;2022-08-11T02:20:24;7.47;;;5.73;;
7835;SDS011;3963;42.658;23.298;2022-08-11T02:23:24;7.87;;;6.20;;
7835;SDS011;3963;42.658;23.298;2022-08-11T02:26:08;7.37;;;6.67;;
7835;SDS011;3963;42.658;23.298;2022-08-11T02:34:43;9.13;;;6.40;;
7835;SDS011;3963;42.658;23.298;2022-08-11T02:37:21;6.70;;;6.00;;
7835;SDS011;3963;42.658;23.298;2022-08-11T02:40:05;7.90;;;6.33;;
7835;SDS011;3963;42.658;23.298;2022-08-11T02:42:48;7.17;;;6.43;;
7835;SDS011;3963;42.658;23.298;2022-08-11T02:45:38;7.47;;;6.40;;
7835;SDS011;3963;42.658;23.298;2022-08-11T02:51:33;7.37;;;6.60;;
7835;SDS011;3963;42.658;23.298;2022-08-11T02:54:07;7.30;;;6.53;;
7835;SDS011;3963;42.658;23.298;2022-08-11T02:56:44;8.63;;;7.23;;
7835;SDS011;3963;42.658;23.298;2022-08-11T02:59:23;8.10;;;7.07;;
7835;SDS011;3963;42.658;23.298;2022-08-11T03:02:13;7.13;;;6.30;;
7835;SDS011;3963;42.658;23.298;2022-08-11T03:04:48;8.17;;;6.73;;
7835;SDS011;3963;42.658;23.298;2022-08-11T03:07:24;8.87;;;6.63;;
7835;SDS011;3963;42.658;23.298;2022-08-11T03:09:59;7.97;;;6.50;;
7835;SDS011;3963;42.658;23.298;2022-08-11T03:12:38;7.33;;;6.20;;
7835;SDS011;3963;42.658;23.298;2022-08-11T03:15:29;8.87;;;6.80;;
7835;SDS011;3963;42.658;23.298;2022-08-11T03:18:25;7.43;;;6.47;;
7835;SDS011;3963;42.658;23.298;2022-08-11T03:21:01;10.43;;;6.47;;
7835;SDS011;3963;42.658;23.298;2022-08-11T03:23:37;8.17;;;6.57;;
7835;SDS011;3963;42.658;23.298;2022-08-11T03:26:13;7.87;;;6.13;;
7835;SDS011;3963;42.658;23.298;2022-08-11T03:28:52;7.57;;;6.30;;
7835;SDS011;3963;42.658;23.298;2022-08-11T03:31:27;7.77;;;6.37;;
7835;SDS011;3963;42.658;23.298;2022-08-11T03:34:00;7.70;;;6.13;;
7835;SDS011;3963;42.658;23.298;2022-08-11T03:39:27;7.90;;;6.30;;
7835;SDS011;3963;42.658;23.298;2022-08-11T03:42:06;10.87;;;6.50;;
7835;SDS011;3963;42.658;23.298;2022-08-11T03:44:54;12.27;;;6.87;;
7835;SDS011;3963;42.658;23.298;2022-08-11T03:50:31;8.60;;;6.47;;
7835;SDS011;3963;42.658;23.298;2022-08-11T03:53:38;7.93;;;6.13;;
7835;SDS011;3963;42.658;23.298;2022-08-11T03:59:32;9.70;;;6.70;;
7835;SDS011;3963;42.658;23.298;2022-08-11T04:05:48;8.30;;;7.03;;
7835;SDS011;3963;42.658;23.298;2022-08-11T04:08:52;9.60;;;6.43;;
7835;SDS011;3963;42.658;23.298;2022-08-11T04:14:41;8.13;;;6.30;;
7835;SDS011;3963;42.658;23.298;2022-08-11T04:17:45;8.80;;;6.97;;
7835;SDS011;3963;42.658;23.298;2022-08-11T04:26:29;11.07;;;6.60;;
7835;SDS011;3963;42.658;23.298;2022-08-11T04:29:17;8.07;;;6.13;;
7835;SDS011;3963;42.658;23.298;2022-08-11T04:32:00;10.93;;;7.10;;
7835;SDS011;3963;42.658;23.298;2022-08-11T04:34:40;10.37;;;6.40;;
7835;SDS011;3963;42.658;23.298;2022-08-11T04:37:35;8.70;;;6.60;;
7835;SDS011;3963;42.658;23.298;2022-08-11T04:46:48;10.57;;;8.73;;
7835;SDS011;3963;42.658;23.298;2022-08-11T04:49:32;9.23;;;8.17;;
7835;SDS011;3963;42.658;23.298;2022-08-11T04:52:39;13.13;;;8.07;;
7835;SDS011;3963;42.658;23.298;2022-08-11T04:55:44;9.43;;;8.43;;
7835;SDS011;3963;42.658;23.298;2022-08-11T04:58:44;8.90;;;7.13;;
7835;SDS011;3963;42.658;23.298;2022-08-11T05:01:39;10.43;;;8.40;;
7835;SDS011;3963;42.658;23.298;2022-08-11T05:04:40;10.37;;;8.17;;
7835;SDS011;3963;42.658;23.298;2022-08-11T05:10:53;8.67;;;6.83;;
7835;SDS011;3963;42.658;23.298;2022-08-11T05:13:29;9.63;;;8.10;;
7835;SDS011;3963;42.658;23.298;2022-08-11T05:16:18;10.37;;;6.90;;
7835;SDS011;3963;42.658;23.298;2022-08-11T05:19:06;9.63;;;7.40;;
7835;SDS011;3963;42.658;23.298;2022-08-11T05:21:58;8.77;;;7.57;;
7835;SDS011;3963;42.658;23.298;2022-08-11T05:24:43;9.60;;;6.73;;
7835;SDS011;3963;42.658;23.298;2022-08-11T05:27:31;9.70;;;7.27;;
7835;SDS011;3963;42.658;23.298;2022-08-11T05:30:26;9.63;;;7.10;;
7835;SDS011;3963;42.658;23.298;2022-08-11T05:33:12;9.33;;;7.50;;
7835;SDS011;3963;42.658;23.298;2022-08-11T05:36:05;11.43;;;7.60;;
7835;SDS011;3963;42.658;23.298;2022-08-11T05:38:37;10.70;;;7.17;;
7835;SDS011;3963;42.658;23.298;2022-08-11T05:41:23;9.87;;;8.07;;
7835;SDS011;3963;42.658;23.298;2022-08-11T05:44:10;10.63;;;8.30;;
7835;SDS011;3963;42.658;23.298;2022-08-11T05:47:02;10.03;;;8.20;;
7835;SDS011;3963;42.658;23.298;2022-08-11T05:49:48;11.23;;;7.37;;
7835;SDS011;3963;42.658;23.298;2022-08-11T05:52:33;8.97;;;7.37;;
7835;SDS011;3963;42.658;23.298;2022-08-11T05:55:19;11.83;;;8.53;;
7835;SDS011;3963;42.658;23.298;2022-08-11T05:58:06;10.70;;;7.37;;
7835;SDS011;3963;42.658;23.298;2022-08-11T06:00:41;11.97;;;7.30;;
7835;SDS011;3963;42.658;23.298;2022-08-11T06:03:11;10.63;;;6.93;;
7835;SDS011;3963;42.658;23.298;2022-08-11T06:05:48;9.87;;;8.00;;
7835;SDS011;3963;42.658;23.298;2022-08-11T06:08:15;9.70;;;6.93;;
7835;SDS011;3963;42.658;23.298;2022-08-11T06:10:43;11.37;;;7.33;;
7835;SDS011;3963;42.658;23.298;2022-08-11T06:13:14;11.17;;;7.27;;
7835;SDS011;3963;42.658;23.298;2022-08-11T06:15:44;9.70;;;7.03;;
7835;SDS011;3963;42.658;23.298;2022-08-11T06:18:12;9.43;;;6.03;;
7835;SDS011;3963;42.658;23.298;2022-08-11T06:20:44;8.13;;;7.23;;
7835;SDS011;3963;42.658;23.298;2022-08-11T06:23:12;10.37;;;6.83;;
7835;SDS011;3963;42.658;23.298;2022-08-11T06:25:43;13.17;;;7.43;;
7835;SDS011;3963;42.658;23.298;2022-08-11T06:28:11;8.50;;;6.93;;
7835;SDS011;3963;42.658;23.298;2022-08-11T06:30:43;11.70;;;6.53;;
7835;SDS011;3963;42.658;23.298;2022-08-11T06:33:13;7.30;;;5.87;;
7835;SDS011;3963;42.658;23.298;2022-08-11T06:35:47;6.67;;;5.80;;
7835;SDS011;3963;42.658;23.298;2022-08-11T06:38:25;11.47;;;6.53;;
7835;SDS011;3963;42.658;23.298;2022-08-11T06:41:06;7.87;;;5.97;;
7835;SDS011;3963;42.658;23.298;2022-08-11T06:44:02;9.90;;;6.50;;
7835;SDS011;3963;42.658;23.298;2022-08-11T06:46:39;7.03;;;5.73;;
7835;SDS011;3963;42.658;23.298;2022-08-11T06:49:08;7.50;;;5.60;;
7835;SDS011;3963;42.658;23.298;2022-08-11T06:51:50;6.67;;;5.10;;
7835;SDS011;3963;42.658;23.298;2022-08-11T06:54:19;6.60;;;5.43;;
7835;SDS011;3963;42.658;23.298;2022-08-11T06:56:46;9.30;;;5.93;;
7835;SDS011;3963;42.658;23.298;2022-08-11T06:59:32;8.03;;;5.60;;
7835;SDS011;3963;42.658;23.298;2022-08-11T07:02:21;7.93;;;6.17;;
7835;SDS011;3963;42.658;23.298;2022-08-11T07:04:53;6.20;;;5.27;;
7835;SDS011;3963;42.658;23.298;2022-08-11T07:10:48;6.13;;;4.53;;
7835;SDS011;3963;42.658;23.298;2022-08-11T07:13:44;5.47;;;4.20;;
7835;SDS011;3963;42.658;23.298;2022-08-11T07:23:14;6.13;;;4.83;;
7835;SDS011;3963;42.658;23.298;2022-08-11T07:26:00;8.40;;;4.63;;
7835;SDS011;3963;42.658;23.298;2022-08-11T07:28:46;7.63;;;5.27;;
7835;SDS011;3963;42.658;23.298;2022-08-11T07:31:23;4.97;;;4.43;;
7835;SDS011;3963;42.658;23.298;2022-08-11T07:33:58;6.47;;;4.73;;
7835;SDS011;3963;42.658;23.298;2022-08-11T07:36:32;5.10;;;4.60;;
7835;SDS011;3963;42.658;23.298;2022-08-11T07:39:06;6.07;;;4.60;;
7835;SDS011;3963;42.658;23.298;2022-08-11T07:41:37;6.73;;;4.70;;
7835;SDS011;3963;42.658;23.298;2022-08-11T07:44:04;7.80;;;4.50;;
7835;SDS011;3963;42.658;23.298;2022-08-11T07:46:34;8.10;;;4.87;;
7835;SDS011;3963;42.658;23.298;2022-08-11T07:49:21;4.83;;;4.33;;
7835;SDS011;3963;42.658;23.298;2022-08-11T07:52:06;5.83;;;4.03;;
7835;SDS011;3963;42.658;23.298;2022-08-11T07:54:53;5.95;;;4.30;;
7835;SDS011;3963;42.658;23.298;2022-08-11T07:57:21;5.82;;;4.88;;
7835;SDS011;3963;42.658;23.298;2022-08-11T08:00:07;4.95;;;4.30;;
7835;SDS011;3963;42.658;23.298;2022-08-11T08:02:52;6.63;;;4.38;;
7835;SDS011;3963;42.658;23.298;2022-08-11T08:05:37;6.15;;;4.53;;
7835;SDS011;3963;42.658;23.298;2022-08-11T08:08:21;5.47;;;4.93;;
7835;SDS011;3963;42.658;23.298;2022-08-11T08:11:07;6.68;;;4.30;;
7835;SDS011;3963;42.658;23.298;2022-08-11T08:13:52;5.90;;;4.43;;
7835;SDS011;3963;42.658;23.298;2022-08-11T08:16:37;5.05;;;4.43;;
7835;SDS011;3963;42.658;23.298;2022-08-11T08:19:22;11.95;;;4.55;;
7835;SDS011;3963;42.658;23.298;2022-08-11T08:21:50;5.28;;;4.78;;
7835;SDS011;3963;42.658;23.298;2022-08-11T08:24:17;6.25;;;4.80;;
7835;SDS011;3963;42.658;23.298;2022-08-11T08:26:46;5.88;;;4.20;;
7835;SDS011;3963;42.658;23.298;2022-08-11T08:29:28;8.05;;;4.25;;
7835;SDS011;3963;42.658;23.298;2022-08-11T08:32:16;5.10;;;4.00;;
7835;SDS011;3963;42.658;23.298;2022-08-11T08:34:44;6.82;;;4.20;;
7835;SDS011;3963;42.658;23.298;2022-08-11T08:37:11;4.35;;;3.95;;
7835;SDS011;3963;42.658;23.298;2022-08-11T08:39:40;5.57;;;3.95;;
7835;SDS011;3963;42.658;23.298;2022-08-11T08:42:09;5.38;;;4.47;;
7835;SDS011;3963;42.658;23.298;2022-08-11T08:44:42;4.80;;;4.05;;
7835;SDS011;3963;42.658;23.298;2022-08-11T08:47:14;4.47;;;4.00;;
7835;SDS011;3963;42.658;23.298;2022-08-11T08:49:44;8.63;;;4.10;;
7835;SDS011;3963;42.658;23.298;2022-08-11T08:52:15;4.57;;;3.63;;
7835;SDS011;3963;42.658;23.298;2022-08-11T08:54:47;4.95;;;4.55;;
7835;SDS011;3963;42.658;23.298;2022-08-11T08:57:22;8.07;;;4.45;;
7835;SDS011;3963;42.658;23.298;2022-08-11T08:59:53;5.10;;;3.95;;
7835;SDS011;3963;42.658;23.298;2022-08-11T09:02:23;4.22;;;3.83;;
7835;SDS011;3963;42.658;23.298;2022-08-11T09:04:51;6.07;;;4.20;;
7835;SDS011;3963;42.658;23.298;2022-08-11T09:07:19;6.05;;;4.00;;
7835;SDS011;3963;42.658;23.298;2022-08-11T09:09:51;4.38;;;3.97;;
7835;SDS011;3963;42.658;23.298;2022-08-11T09:12:25;4.38;;;3.95;;
7835;SDS011;3963;42.658;23.298;2022-08-11T09:14:53;4.38;;;3.92;;
7835;SDS011;3963;42.658;23.298;2022-08-11T09:17:29;4.13;;;3.67;;
7835;SDS011;3963;42.658;23.298;2022-08-11T09:20:00;7.47;;;4.25;;
7835;SDS011;3963;42.658;23.298;2022-08-11T09:22:30;5.28;;;4.18;;
7835;SDS011;3963;42.658;23.298;2022-08-11T09:25:16;4.13;;;3.40;;
7835;SDS011;3963;42.658;23.298;2022-08-11T09:28:04;5.03;;;3.70;;
7835;SDS011;3963;42.658;23.298;2022-08-11T09:30:35;5.63;;;3.53;;
7835;SDS011;3963;42.658;23.298;2022-08-11T09:33:03;4.57;;;3.80;;
7835;SDS011;3963;42.658;23.298;2022-08-11T09:35:32;6.10;;;4.13;;
7835;SDS011;3963;42.658;23.298;2022-08-11T09:38:03;6.55;;;3.97;;
7835;SDS011;3963;42.658;23.298;2022-08-11T09:40:49;5.05;;;4.10;;
7835;SDS011;3963;42.658;23.298;2022-08-11T09:43:18;6.07;;;4.35;;
7835;SDS011;3963;42.658;23.298;2022-08-11T09:46:03;5.97;;;4.35;;
7835;SDS011;3963;42.658;23.298;2022-08-11T09:48:34;6.28;;;3.65;;
7835;SDS011;3963;42.658;23.298;2022-08-11T09:51:03;6.38;;;3.90;;
7835;SDS011;3963;42.658;23.298;2022-08-11T09:53:34;3.85;;;3.55;;
7835;SDS011;3963;42.658;23.298;2022-08-11T09:56:04;6.40;;;3.55;;
7835;SDS011;3963;42.658;23.298;2022-08-11T09:58:47;3.85;;;3.38;;
7835;SDS011;3963;42.658;23.298;2022-08-11T10:01:15;5.35;;;3.35;;
7835;SDS011;3963;42.658;23.298;2022-08-11T10:03:53;5.03;;;3.95;;
7835;SDS011;3963;42.658;23.298;2022-08-11T10:06:27;7.05;;;3.80;;
7835;SDS011;3963;42.658;23.298;2022-08-11T10:09:13;4.90;;;4.38;;
7835;SDS011;3963;42.658;23.298;2022-08-11T10:11:45;6.85;;;4.07;;
7835;SDS011;3963;42.658;23.298;2022-08-11T10:14:15;4.60;;;4.10;;
7835;SDS011;3963;42.658;23.298;2022-08-11T10:17:02;4.65;;;4.25;;
7835;SDS011;3963;42.658;23.298;2022-08-11T10:19:33;4.55;;;3.55;;
7835;SDS011;3963;42.658;23.298;2022-08-11T10:22:02;5.97;;;3.60;;
7835;SDS011;3963;42.658;23.298;2022-08-11T10:25:02;5.72;;;4.15;;
7835;SDS011;3963;42.658;23.298;2022-08-11T10:27:47;5.25;;;3.95;;
7835;SDS011;3963;42.658;23.298;2022-08-11T10:30:24;4.57;;;3.75;;
7835;SDS011;3963;42.658;23.298;2022-08-11T10:33:09;4.50;;;4.10;;
7835;SDS011;3963;42.658;23.298;2022-08-11T10:35:56;6.05;;;4.18;;
7835;SDS011;3963;42.658;23.298;2022-08-11T10:38:23;7.47;;;4.50;;
7835;SDS011;3963;42.658;23.298;2022-08-11T10:40:52;5.57;;;4.50;;
7835;SDS011;3963;42.658;23.298;2022-08-11T10:43:34;4.68;;;4.05;;
7835;SDS011;3963;42.658;23.298;2022-08-11T10:46:06;4.80;;;4.13;;
7835;SDS011;3963;42.658;23.298;2022-08-11T10:48:53;4.57;;;3.90;;
7835;SDS011;3963;42.658;23.298;2022-08-11T10:51:21;5.70;;;3.70;;
7835;SDS011;3963;42.658;23.298;2022-08-11T10:54:07;7.18;;;3.88;;
7835;SDS011;3963;42.658;23.298;2022-08-11T10:56:51;6.85;;;4.45;;
7835;SDS011;3963;42.658;23.298;2022-08-11T10:59:37;3.97;;;3.47;;
7835;SDS011;3963;42.658;23.298;2022-08-11T11:02:09;4.38;;;3.50;;
7835;SDS011;3963;42.658;23.298;2022-08-11T11:04:43;3.65;;;3.33;;
7835;SDS011;3963;42.658;23.298;2022-08-11T11:07:23;4.63;;;3.30;;
7835;SDS011;3963;42.658;23.298;2022-08-11T11:09:56;4.75;;;3.50;;
7835;SDS011;3963;42.658;23.298;2022-08-11T11:12:29;3.90;;;3.60;;
7835;SDS011;3963;42.658;23.298;2022-08-11T11:15:17;6.65;;;3.92;;
7835;SDS011;3963;42.658;23.298;2022-08-11T11:18:05;5.28;;;3.63;;
7835;SDS011;3963;42.658;23.298;2022-08-11T11:20:38;4.22;;;3.70;;
7835;SDS011;3963;42.658;23.298;2022-08-11T11:23:10;5.07;;;3.80;;
7835;SDS011;3963;42.658;23.298;2022-08-11T11:25:45;5.90;;;4.43;;
7835;SDS011;3963;42.658;23.298;2022-08-11T11:28:44;5.63;;;3.90;;
7835;SDS011;3963;42.658;23.298;2022-08-11T11:31:24;5.68;;;3.97;;
7835;SDS011;3963;42.658;23.298;2022-08-11T11:34:04;5.45;;;3.67;;
7835;SDS011;3963;42.658;23.298;2022-08-11T11:36:44;5.75;;;3.80;;
7835;SDS011;3963;42.658;23.298;2022-08-11T11:39:15;5.50;;;4.05;;
7835;SDS011;3963;42.658;23.298;2022-08-11T11:41:45;4.40;;;3.67;;
7835;SDS011;3963;42.658;23.298;2022-08-11T11:44:14;4.75;;;4.00;;
7835;SDS011;3963;42.658;23.298;2022-08-11T11:46:42;7.53;;;4.10;;
7835;SDS011;3963;42.658;23.298;2022-08-11T11:49:13;7.05;;;3.72;;
7835;SDS011;3963;42.658;23.298;2022-08-11T11:51:42;4.30;;;3.72;;
7835;SDS011;3963;42.658;23.298;2022-08-11T11:54:12;7.43;;;4.15;;
7835;SDS011;3963;42.658;23.298;2022-08-11T11:56:40;4.72;;;4.13;;
7835;SDS011;3963;42.658;23.298;2022-08-11T11:59:08;6.97;;;3.55;;
7835;SDS011;3963;42.658;23.298;2022-08-11T12:01:54;8.10;;;4.60;;
7835;SDS011;3963;42.658;23.298;2022-08-11T12:04:23;8.73;;;4.80;;
7835;SDS011;3963;42.658;23.298;2022-08-11T12:06:51;4.70;;;4.03;;
7835;SDS011;3963;42.658;23.298;2022-08-11T12:09:39;7.28;;;4.90;;
7835;SDS011;3963;42.658;23.298;2022-08-11T12:12:07;5.93;;;4.55;;
7835;SDS011;3963;42.658;23.298;2022-08-11T12:14:51;6.80;;;4.60;;
7835;SDS011;3963;42.658;23.298;2022-08-11T12:17:19;4.45;;;3.97;;
7835;SDS011;3963;42.658;23.298;2022-08-11T12:19:48;6.63;;;4.65;;
7835;SDS011;3963;42.658;23.298;2022-08-11T12:22:16;7.50;;;4.68;;
7835;SDS011;3963;42.658;23.298;2022-08-11T12:28:22;5.70;;;4.03;;
7835;SDS011;3963;42.658;23.298;2022-08-11T12:30:49;7.25;;;4.28;;
7835;SDS011;3963;42.658;23.298;2022-08-11T12:33:17;7.07;;;4.53;;
7835;SDS011;3963;42.658;23.298;2022-08-11T12:35:48;5.68;;;4.50;;
7835;SDS011;3963;42.658;23.298;2022-08-11T12:38:21;6.72;;;4.25;;
7835;SDS011;3963;42.658;23.298;2022-08-11T12:40:49;4.80;;;4.05;;
7835;SDS011;3963;42.658;23.298;2022-08-11T12:43:35;5.40;;;4.38;;
7835;SDS011;3963;42.658;23.298;2022-08-11T12:46:20;4.50;;;4.10;;
7835;SDS011;3963;42.658;23.298;2022-08-11T12:48:50;7.70;;;4.37;;
7835;SDS011;3963;42.658;23.298;2022-08-11T12:51:48;6.80;;;3.77;;
7835;SDS011;3963;42.658;23.298;2022-08-11T12:54:25;3.90;;;3.50;;
7835;SDS011;3963;42.658;23.298;2022-08-11T12:56:54;4.73;;;3.70;;
7835;SDS011;3963;42.658;23.298;2022-08-11T12:59:42;5.93;;;3.70;;
7835;SDS011;3963;42.658;23.298;2022-08-11T13:02:28;4.27;;;3.87;;
7835;SDS011;3963;42.658;23.298;2022-08-11T13:05:13;5.50;;;3.83;;
7835;SDS011;3963;42.658;23.298;2022-08-11T13:07:43;5.53;;;3.77;;
7835;SDS011;3963;42.658;23.298;2022-08-11T13:10:13;3.60;;;3.30;;
7835;SDS011;3963;42.658;23.298;2022-08-11T13:13:03;4.03;;;3.63;;
7835;SDS011;3963;42.658;23.298;2022-08-11T13:15:31;5.23;;;3.40;;
7835;SDS011;3963;42.658;23.298;2022-08-11T13:18:00;4.33;;;3.40;;
7835;SDS011;3963;42.658;23.298;2022-08-11T13:20:28;4.57;;;4.10;;
7835;SDS011;3963;42.658;23.298;2022-08-11T13:22:57;5.00;;;4.03;;
7835;SDS011;3963;42.658;23.298;2022-08-11T13:25:27;3.93;;;3.53;;
7835;SDS011;3963;42.658;23.298;2022-08-11T13:27:57;6.50;;;3.93;;
7835;SDS011;3963;42.658;23.298;2022-08-11T13:30:25;5.27;;;4.47;;
7835;SDS011;3963;42.658;23.298;2022-08-11T13:33:12;4.27;;;3.67;;
7835;SDS011;3963;42.658;23.298;2022-08-11T13:35:40;4.83;;;3.60;;
7835;SDS011;3963;42.658;23.298;2022-08-11T13:38:10;3.60;;;3.30;;
7835;SDS011;3963;42.658;23.298;2022-08-11T13:40:38;6.17;;;4.20;;
7835;SDS011;3963;42.658;23.298;2022-08-11T13:43:06;3.97;;;3.57;;
7835;SDS011;3963;42.658;23.298;2022-08-11T13:45:34;4.43;;;3.30;;
7835;SDS011;3963;42.658;23.298;2022-08-11T13:48:03;5.87;;;4.20;;
7835;SDS011;3963;42.658;23.298;2022-08-11T13:50:34;3.63;;;3.23;;
7835;SDS011;3963;42.658;23.298;2022-08-11T13:53:21;3.73;;;3.27;;
7835;SDS011;3963;42.658;23.298;2022-08-11T13:55:49;4.30;;;3.40;;
7835;SDS011;3963;42.658;23.298;2022-08-11T13:58:17;4.47;;;3.60;;
7835;SDS011;3963;42.658;23.298;2022-08-11T14:00:47;4.20;;;3.80;;
7835;SDS011;3963;42.658;23.298;2022-08-11T14:03:16;4.37;;;3.60;;
7835;SDS011;3963;42.658;23.298;2022-08-11T14:05:51;3.73;;;3.43;;
7835;SDS011;3963;42.658;23.298;2022-08-11T14:08:24;4.40;;;3.43;;
7835;SDS011;3963;42.658;23.298;2022-08-11T14:10:52;3.80;;;3.40;;
7835;SDS011;3963;42.658;23.298;2022-08-11T14:13:42;3.90;;;3.20;;
7835;SDS011;3963;42.658;23.298;2022-08-11T14:16:11;3.57;;;3.00;;
7835;SDS011;3963;42.658;23.298;2022-08-11T14:18:44;4.67;;;3.73;;
7835;SDS011;3963;42.658;23.298;2022-08-11T14:21:13;3.67;;;3.30;;
7835;SDS011;3963;42.658;23.298;2022-08-11T14:24:01;3.50;;;3.03;;
7835;SDS011;3963;42.658;23.298;2022-08-11T14:26:29;3.00;;;2.57;;
7835;SDS011;3963;42.658;23.298;2022-08-11T14:29:04;4.87;;;3.10;;
7835;SDS011;3963;42.658;23.298;2022-08-11T14:31:34;4.00;;;3.60;;
7835;SDS011;3963;42.658;23.298;2022-08-11T14:34:05;4.70;;;3.33;;
7835;SDS011;3963;42.658;23.298;2022-08-11T14:36:35;4.67;;;3.20;;
7835;SDS011;3963;42.658;23.298;2022-08-11T14:39:06;4.00;;;3.60;;
7835;SDS011;3963;42.658;23.298;2022-08-11T14:41:37;3.80;;;3.40;;
7835;SDS011;3963;42.658;23.298;2022-08-11T14:44:22;4.30;;;3.77;;
7835;SDS011;3963;42.658;23.298;2022-08-11T14:47:07;3.97;;;3.23;;
7835;SDS011;3963;42.658;23.298;2022-08-11T14:49:38;4.20;;;3.80;;
7835;SDS011;3963;42.658;23.298;2022-08-11T14:52:07;3.93;;;3.50;;
7835;SDS011;3963;42.658;23.298;2022-08-11T14:54:42;6.97;;;3.87;;
7835;SDS011;3963;42.658;23.298;2022-08-11T14:57:28;4.07;;;3.60;;
7835;SDS011;3963;42.658;23.298;2022-08-11T14:59:56;7.03;;;5.20;;
7835;SDS011;3963;42.658;23.298;2022-08-11T15:02:25;7.87;;;4.97;;
7835;SDS011;3963;42.658;23.298;2022-08-11T15:05:11;5.30;;;4.20;;
7835;SDS011;3963;42.658;23.298;2022-08-11T15:07:38;4.67;;;4.07;;
7835;SDS011;3963;42.658;23.298;2022-08-11T15:10:08;4.60;;;3.73;;
7835;SDS011;3963;42.658;23.298;2022-08-11T15:12:36;4.20;;;3.63;;
7835;SDS011;3963;42.658;23.298;2022-08-11T15:15:06;5.00;;;4.03;;
7835;SDS011;3963;42.658;23.298;2022-08-11T15:17:54;4.57;;;4.00;;
7835;SDS011;3963;42.658;23.298;2022-08-11T15:20:23;4.57;;;4.10;;
7835;SDS011;3963;42.658;23.298;2022-08-11T15:23:09;4.50;;;4.10;;
7835;SDS011;3963;42.658;23.298;2022-08-11T15:25:56;5.93;;;3.80;;
7835;SDS011;3963;42.658;23.298;2022-08-11T15:28:26;5.20;;;4.67;;
7835;SDS011;3963;42.658;23.298;2022-08-11T15:31:12;10.20;;;4.57;;
7835;SDS011;3963;42.658;23.298;2022-08-11T15:34:00;5.47;;;4.43;;
7835;SDS011;3963;42.658;23.298;2022-08-11T15:36:47;5.23;;;3.97;;
7835;SDS011;3963;42.658;23.298;2022-08-11T15:39:34;4.50;;;4.10;;
7835;SDS011;3963;42.658;23.298;2022-08-11T15:42:25;5.53;;;3.90;;
7835;SDS011;3963;42.658;23.298;2022-08-11T15:45:07;4.83;;;3.73;;
7835;SDS011;3963;42.658;23.298;2022-08-11T15:47:54;5.73;;;3.80;;
7835;SDS011;3963;42.658;23.298;2022-08-11T15:50:26;7.27;;;3.83;;
7835;SDS011;3963;42.658;23.298;2022-08-11T15:52:57;4.40;;;3.93;;
7835;SDS011;3963;42.658;23.298;2022-08-11T15:55:26;4.77;;;3.60;;
7835;SDS011;3963;42.658;23.298;2022-08-11T15:57:58;4.43;;;3.70;;
7835;SDS011;3963;42.658;23.298;2022-08-11T16:00:45;7.10;;;4.10;;
7835;SDS011;3963;42.658;23.298;2022-08-11T16:03:34;6.87;;;3.87;;
7835;SDS011;3963;42.658;23.298;2022-08-11T16:06:28;6.67;;;4.17;;
7835;SDS011;3963;42.658;23.298;2022-08-11T16:08:57;7.90;;;3.63;;
7835;SDS011;3963;42.658;23.298;2022-08-11T16:11:29;5.80;;;4.00;;
7835;SDS011;3963;42.658;23.298;2022-08-11T16:13:58;4.97;;;4.10;;
7835;SDS011;3963;42.658;23.298;2022-08-11T16:17:00;6.73;;;3.67;;
7835;SDS011;3963;42.658;23.298;2022-08-11T16:19:28;6.20;;;4.13;;
7835;SDS011;3963;42.658;23.298;2022-08-11T16:22:00;6.60;;;3.70;;
7835;SDS011;3963;42.658;23.298;2022-08-11T16:24:31;6.60;;;3.57;;
7835;SDS011;3963;42.658;23.298;2022-08-11T16:27:00;7.73;;;3.83;;
7835;SDS011;3963;42.658;23.298;2022-08-11T16:29:30;8.17;;;4.70;;
7835;SDS011;3963;42.658;23.298;2022-08-11T16:31:57;4.93;;;3.70;;
7835;SDS011;3963;42.658;23.298;2022-08-11T16:34:42;4.03;;;3.63;;
7835;SDS011;3963;42.658;23.298;2022-08-11T16:37:28;3.93;;;3.53;;
7835;SDS011;3963;42.658;23.298;2022-08-11T16:40:15;5.53;;;3.80;;
7835;SDS011;3963;42.658;23.298;2022-08-11T16:42:45;6.53;;;3.80;;
7835;SDS011;3963;42.658;23.298;2022-08-11T16:45:33;5.70;;;3.93;;
7835;SDS011;3963;42.658;23.298;2022-08-11T16:48:19;4.47;;;3.60;;
7835;SDS011;3963;42.658;23.298;2022-08-11T16:50:48;5.87;;;3.60;;
7835;SDS011;3963;42.658;23.298;2022-08-11T16:53:15;4.23;;;3.70;;
7835;SDS011;3963;42.658;23.298;2022-08-11T16:55:42;4.40;;;3.40;;
7835;SDS011;3963;42.658;23.298;2022-08-11T16:58:12;4.03;;;3.63;;
7835;SDS011;3963;42.658;23.298;2022-08-11T17:00:59;5.97;;;3.73;;
7835;SDS011;3963;42.658;23.298;2022-08-11T17:03:28;4.67;;;3.87;;
7835;SDS011;3963;42.658;23.298;2022-08-11T17:06:16;6.90;;;3.60;;
7835;SDS011;3963;42.658;23.298;2022-08-11T17:09:02;6.90;;;4.30;;
7835;SDS011;3963;42.658;23.298;2022-08-11T17:11:49;4.53;;;4.13;;
7835;SDS011;3963;42.658;23.298;2022-08-11T17:14:39;5.50;;;3.63;;
7835;SDS011;3963;42.658;23.298;2022-08-11T17:17:12;4.50;;;4.10;;
7835;SDS011;3963;42.658;23.298;2022-08-11T17:19:43;4.20;;;3.53;;
7835;SDS011;3963;42.658;23.298;2022-08-11T17:22:13;7.67;;;4.10;;
7835;SDS011;3963;42.658;23.298;2022-08-11T17:24:59;7.33;;;4.87;;
7835;SDS011;3963;42.658;23.298;2022-08-11T17:27:27;7.57;;;3.57;;
7835;SDS011;3963;42.658;23.298;2022-08-11T17:29:57;5.43;;;4.30;;